»·PEaware :: N12BC KSNA-KCRQ

N12BC :: KSNA-KCRQ

FLIGHT INFORMATION

Flight Status: Arrived
Operator: Privately registered:
United States
More flights under this callsign
Pilot: Todd P. (37547)
Aircraft: CESSNA 172 SKYHAWK
(C172)
More flights by this aircraft type
Origin: KSNA John Wayne-Orange Co
United States
Destination: KCRQ McClellan-Palomar
United States
More flights between these airports :: More routes between these airports
Route: MUSEL8 MUSEL RV V23 OCN
File this flight plan on PilotEdge
Remarks:
Altitude:
(Current/Filed)
5,000ft
Speed:
(Current/Filed)
118kts
Departed: 15-Dec-21 03:55 PM
Arrived: 15-Dec-21 04:33 PM
Distance/Time
Traveled:
44nm/0:37
Distance/Time
To Go:
Arrived

Flight Plot

Page will automatically refresh every two minutes.

Flight plan parsing failed; only flown route is shown


Map Options




Map Legend


Flown Route
Filed Route
Departure Airport
Arrival Airport
Navaid (VOR, NDB)
Fix

Horizontal Profiles

Position Reports

Time Latitude Longitude Heading Altitude Ground
Speed
15-Dec-21 15:28 33.667170 -117.872135 225 60ft 0kts
15-Dec-21 15:29 33.667170 -117.872135 225 60ft 0kts
15-Dec-21 15:30 33.667170 -117.872135 225 60ft 0kts
15-Dec-21 15:31 33.667170 -117.872135 225 60ft 0kts
15-Dec-21 15:32 33.667170 -117.872135 225 60ft 0kts
15-Dec-21 15:33 33.667170 -117.872135 225 60ft 0kts
15-Dec-21 15:34 33.667170 -117.872135 225 60ft 0kts
15-Dec-21 15:35 33.667170 -117.872135 225 60ft 0kts
15-Dec-21 15:36 33.667170 -117.872135 225 60ft 0kts
15-Dec-21 15:37 33.667170 -117.872135 225 60ft 0kts
15-Dec-21 15:38 33.667170 -117.872135 225 60ft 0kts
15-Dec-21 15:39 33.667170 -117.872135 225 60ft 0kts
15-Dec-21 15:40 33.667170 -117.872135 225 60ft 0kts
15-Dec-21 15:41 33.667170 -117.872135 225 60ft 0kts
15-Dec-21 15:42 33.667170 -117.872135 225 60ft 0kts
15-Dec-21 15:43 33.667170 -117.872135 225 60ft 0kts
15-Dec-21 15:44 33.667170 -117.872135 225 60ft 0kts
15-Dec-21 15:45 33.667209 -117.872473 40 60ft 10kts
15-Dec-21 15:46 33.668223 -117.871371 37 60ft 0kts
15-Dec-21 15:47 33.673362 -117.867119 0 60ft 21kts
15-Dec-21 15:48 33.677647 -117.864843 28 60ft 27kts
15-Dec-21 15:49 33.679931 -117.863586 312 60ft 0kts
15-Dec-21 15:50 33.679931 -117.863586 312 60ft 0kts
15-Dec-21 15:51 33.679931 -117.863586 312 60ft 0kts
15-Dec-21 15:52 33.679931 -117.863586 312 60ft 0kts
15-Dec-21 15:53 33.679993 -117.863691 301 60ft 6kts
15-Dec-21 15:54 33.671440 -117.871919 212 289ft 74kts
15-Dec-21 15:55 33.653352 -117.885168 214 991ft 79kts
15-Dec-21 15:56 33.631730 -117.885169 186 1684ft 81kts
15-Dec-21 15:57 33.608872 -117.885837 191 2330ft 83kts
15-Dec-21 15:58 33.585470 -117.889368 188 2948ft 86kts
15-Dec-21 15:59 33.561506 -117.892308 187 3535ft 88kts
15-Dec-21 16:00 33.547816 -117.870974 104 4085ft 86kts
15-Dec-21 16:01 33.539245 -117.843684 102 4618ft 88kts
15-Dec-21 16:02 33.530415 -117.815410 104 5003ft 105kts
15-Dec-21 16:03 33.518977 -117.776539 104 4991ft 133kts
15-Dec-21 16:04 33.506797 -117.733531 104 4989ft 138kts
15-Dec-21 16:05 33.481708 -117.698224 137 4990ft 142kts
15-Dec-21 16:06 33.452876 -117.665174 136 4990ft 143kts
15-Dec-21 16:07 33.424268 -117.631710 138 4990ft 143kts
15-Dec-21 16:08 33.395862 -117.598504 139 4990ft 142kts
15-Dec-21 16:09 33.367599 -117.565493 138 4991ft 142kts
15-Dec-21 16:10 33.339332 -117.532504 137 4991ft 142kts
15-Dec-21 16:11 33.310914 -117.499361 136 4991ft 142kts
15-Dec-21 16:12 33.282548 -117.466306 135 4991ft 142kts
15-Dec-21 16:13 33.254284 -117.433399 135 4990ft 142kts
15-Dec-21 16:14 33.233333 -117.396004 92 4990ft 138kts
15-Dec-21 16:15 33.228678 -117.350730 92 4988ft 137kts
15-Dec-21 16:16 33.224230 -117.305409 92 4984ft 138kts
15-Dec-21 16:17 33.220165 -117.259590 92 4983ft 139kts
15-Dec-21 16:18 33.216536 -117.213310 92 4982ft 140kts
15-Dec-21 16:19 33.213378 -117.166610 92 4981ft 141kts
15-Dec-21 16:20 33.210672 -117.117425 92 4629ft 155kts
15-Dec-21 16:21 33.208612 -117.067679 92 4004ft 140kts
15-Dec-21 16:22 33.199293 -117.029392 164 4020ft 119kts
15-Dec-21 16:23 33.172025 -117.039683 213 4020ft 108kts
15-Dec-21 16:24 33.160691 -117.068407 270 3680ft 104kts
15-Dec-21 16:25 33.156160 -117.100986 275 3438ft 94kts
15-Dec-21 16:26 33.153325 -117.132008 264 2874ft 94kts
15-Dec-21 16:27 33.148015 -117.162652 258 2300ft 93kts
15-Dec-21 16:28 33.141680 -117.192740 260 1749ft 93kts
15-Dec-21 16:29 33.137642 -117.223162 264 1233ft 93kts
15-Dec-21 16:30 33.132611 -117.253191 259 699ft 92kts
15-Dec-21 16:31 33.128895 -117.275925 260 309ft 42kts
15-Dec-21 16:32 33.127538 -117.279968 228 309ft 0kts
15-Dec-21 16:33 33.127222 -117.280112 176 309ft 17kts

Navigation Log

Ident Type
Flight plan parsing failed, navigation log unavailable